KHUA/HUA METAR and TAF weather

Enter ICAO airport designator
Station Type Date Time Source
KHUA METAR 2022/01/29 12:58 UTC NOAA

KHUA 291258Z AUTO 36009KT 9SM CLR M07/M11 A3033 RMK AO2 SLP280 T10711113


Station Type Date Time Source
KHUA Decoded METAR 2022/01/29 12:58 UTC NOAA

Station name not available
Jan 29, 2022 - 07:58 AM EST / 2022.01.29 1258 UTC
Wind: from the N (360 degrees) at 10 MPH (9 KT):0
Visibility: 9 mile(s):0
Sky conditions: clear
Temperature: 19.2 F (-7.1 C)
Windchill: 8 F (-13 C):1
Dew Point: 11.7 F (-11.3 C)
Relative Humidity: 71%
Pressure (altimeter): 30.33 in. Hg (1027 hPa)
ob: KHUA 291258Z AUTO 36009KT 9SM CLR M07/M11 A3033 RMK AO2 SLP280 T10711113
cycle: 13

Station Type Date Time Source
KHUA TAF 2022/01/28 21:39 UTC NOAA

TAF
AMD KHUA 282130Z 2821/3003 33012KT 9999 FEW045 530053 QNH3004INS
BECMG 2900/2901 33020G30KT 9999 FEW026 530053 QNH3010INS
BECMG 2910/2911 34020G25KT 9999 SCT026 530063 QNH3023INS
BECMG 2912/2913 34012KT 9999 SKC QNH3017INS TX09/2821Z TNM05/2913Z LAST NO
AMDS AFT 2900 NEXT 3112

Example: see airport list